sensor_id;sensor_type;location;lat;lon;timestamp;temperature;humidity
14349;DHT22;7258;50.376;8.742;2023-06-22T00:01:42;21.80;99.90
14349;DHT22;7258;50.376;8.742;2023-06-22T00:04:03;21.80;99.90
14349;DHT22;7258;50.376;8.742;2023-06-22T00:06:46;21.70;99.90
14349;DHT22;7258;50.376;8.742;2023-06-22T00:09:37;21.60;99.90
14349;DHT22;7258;50.376;8.742;2023-06-22T00:12:43;21.60;99.90
14349;DHT22;7258;50.376;8.742;2023-06-22T00:15:23;21.40;99.90
14349;DHT22;7258;50.376;8.742;2023-06-22T00:17:37;21.40;99.90
14349;DHT22;7258;50.376;8.742;2023-06-22T00:23:48;21.40;99.90
14349;DHT22;7258;50.376;8.742;2023-06-22T00:26:24;21.40;99.90
14349;DHT22;7258;50.376;8.742;2023-06-22T00:28:44;21.30;99.90
14349;DHT22;7258;50.376;8.742;2023-06-22T00:31:10;21.30;99.90
14349;DHT22;7258;50.376;8.742;2023-06-22T00:33:40;21.40;99.90
14349;DHT22;7258;50.376;8.742;2023-06-22T00:36:10;21.30;99.90
14349;DHT22;7258;50.376;8.742;2023-06-22T00:38:42;21.40;99.90
14349;DHT22;7258;50.376;8.742;2023-06-22T00:41:07;21.40;99.90
14349;DHT22;7258;50.376;8.742;2023-06-22T00:43:51;21.40;99.90
14349;DHT22;7258;50.376;8.742;2023-06-22T00:46:12;21.40;99.90
14349;DHT22;7258;50.376;8.742;2023-06-22T00:48:46;21.40;99.90
14349;DHT22;7258;50.376;8.742;2023-06-22T00:51:16;21.40;99.90
14349;DHT22;7258;50.376;8.742;2023-06-22T00:53:45;21.40;99.90
14349;DHT22;7258;50.376;8.742;2023-06-22T00:55:58;21.40;99.90
14349;DHT22;7258;50.376;8.742;2023-06-22T00:58:21;21.50;99.90
14349;DHT22;7258;50.376;8.742;2023-06-22T01:00:47;21.50;99.90
14349;DHT22;7258;50.376;8.742;2023-06-22T01:03:23;21.60;99.90
14349;DHT22;7258;50.376;8.742;2023-06-22T01:14:15;21.70;99.90
14349;DHT22;7258;50.376;8.742;2023-06-22T01:14:55;21.70;99.90
14349;DHT22;7258;50.376;8.742;2023-06-22T01:17:53;21.80;99.90
14349;DHT22;7258;50.376;8.742;2023-06-22T01:20:22;21.80;99.90
14349;DHT22;7258;50.376;8.742;2023-06-22T01:23:49;21.80;99.90
14349;DHT22;7258;50.376;8.742;2023-06-22T01:26:17;21.80;99.90
14349;DHT22;7258;50.376;8.742;2023-06-22T01:29:12;21.80;99.90
14349;DHT22;7258;50.376;8.742;2023-06-22T01:31:26;21.70;99.90
14349;DHT22;7258;50.376;8.742;2023-06-22T01:33:40;21.60;99.90
14349;DHT22;7258;50.376;8.742;2023-06-22T01:35:44;21.60;99.90
14349;DHT22;7258;50.376;8.742;2023-06-22T01:37:49;21.60;99.90
14349;DHT22;7258;50.376;8.742;2023-06-22T01:39:52;21.50;99.90
14349;DHT22;7258;50.376;8.742;2023-06-22T01:41:57;21.30;99.90
14349;DHT22;7258;50.376;8.742;2023-06-22T01:44:05;21.10;99.90
14349;DHT22;7258;50.376;8.742;2023-06-22T01:46:09;20.90;99.90
14349;DHT22;7258;50.376;8.742;2023-06-22T01:48:12;20.80;99.90
14349;DHT22;7258;50.376;8.742;2023-06-22T01:50:16;20.60;99.90
14349;DHT22;7258;50.376;8.742;2023-06-22T01:52:19;20.40;99.90
14349;DHT22;7258;50.376;8.742;2023-06-22T01:54:23;20.30;99.90
14349;DHT22;7258;50.376;8.742;2023-06-22T01:56:26;20.10;99.90
14349;DHT22;7258;50.376;8.742;2023-06-22T01:58:30;20.00;99.90
14349;DHT22;7258;50.376;8.742;2023-06-22T02:00:38;19.90;99.90
14349;DHT22;7258;50.376;8.742;2023-06-22T02:02:51;19.80;99.90
14349;DHT22;7258;50.376;8.742;2023-06-22T02:04:58;19.80;99.90
14349;DHT22;7258;50.376;8.742;2023-06-22T02:07:05;19.80;99.90
14349;DHT22;7258;50.376;8.742;2023-06-22T02:09:14;19.70;99.90
14349;DHT22;7258;50.376;8.742;2023-06-22T02:11:20;19.60;99.90
14349;DHT22;7258;50.376;8.742;2023-06-22T02:13:24;19.50;99.90
14349;DHT22;7258;50.376;8.742;2023-06-22T02:15:28;19.50;99.90
14349;DHT22;7258;50.376;8.742;2023-06-22T02:17:33;19.50;99.90
14349;DHT22;7258;50.376;8.742;2023-06-22T02:19:37;19.40;99.90
14349;DHT22;7258;50.376;8.742;2023-06-22T02:21:40;19.40;99.90
14349;DHT22;7258;50.376;8.742;2023-06-22T02:23:47;19.40;99.90
14349;DHT22;7258;50.376;8.742;2023-06-22T02:25:57;19.30;99.90
14349;DHT22;7258;50.376;8.742;2023-06-22T02:28:07;19.30;99.90
14349;DHT22;7258;50.376;8.742;2023-06-22T02:30:10;19.30;99.90
14349;DHT22;7258;50.376;8.742;2023-06-22T02:32:13;19.20;99.90
14349;DHT22;7258;50.376;8.742;2023-06-22T02:34:22;19.20;99.90
14349;DHT22;7258;50.376;8.742;2023-06-22T02:36:25;19.20;99.90
14349;DHT22;7258;50.376;8.742;2023-06-22T02:38:35;19.20;99.90
14349;DHT22;7258;50.376;8.742;2023-06-22T02:40:43;19.20;99.90
14349;DHT22;7258;50.376;8.742;2023-06-22T02:42:52;19.20;99.90
14349;DHT22;7258;50.376;8.742;2023-06-22T02:47:38;19.10;99.90
14349;DHT22;7258;50.376;8.742;2023-06-22T02:49:57;19.20;99.90
14349;DHT22;7258;50.376;8.742;2023-06-22T02:52:45;19.20;99.90
14349;DHT22;7258;50.376;8.742;2023-06-22T02:58:09;19.10;99.90
14349;DHT22;7258;50.376;8.742;2023-06-22T03:00:59;19.10;99.90
14349;DHT22;7258;50.376;8.742;2023-06-22T03:03:20;19.10;99.90
14349;DHT22;7258;50.376;8.742;2023-06-22T03:12:26;19.20;99.90
14349;DHT22;7258;50.376;8.742;2023-06-22T03:14:51;19.20;99.90
14349;DHT22;7258;50.376;8.742;2023-06-22T03:17:17;19.20;99.90
14349;DHT22;7258;50.376;8.742;2023-06-22T03:19:21;19.20;99.90
14349;DHT22;7258;50.376;8.742;2023-06-22T03:21:43;19.20;99.90
14349;DHT22;7258;50.376;8.742;2023-06-22T03:23:54;19.30;99.90
14349;DHT22;7258;50.376;8.742;2023-06-22T03:26:06;19.20;99.90
14349;DHT22;7258;50.376;8.742;2023-06-22T03:28:33;19.20;99.90
14349;DHT22;7258;50.376;8.742;2023-06-22T03:30:43;19.20;99.90
14349;DHT22;7258;50.376;8.742;2023-06-22T03:33:08;19.20;99.90
14349;DHT22;7258;50.376;8.742;2023-06-22T03:35:48;19.20;99.90
14349;DHT22;7258;50.376;8.742;2023-06-22T03:37:51;19.20;99.90
14349;DHT22;7258;50.376;8.742;2023-06-22T03:39:55;19.20;99.90
14349;DHT22;7258;50.376;8.742;2023-06-22T03:41:58;19.30;99.90
14349;DHT22;7258;50.376;8.742;2023-06-22T03:44:02;19.40;99.90
14349;DHT22;7258;50.376;8.742;2023-06-22T03:46:05;19.40;99.90
14349;DHT22;7258;50.376;8.742;2023-06-22T03:48:08;19.40;99.90
14349;DHT22;7258;50.376;8.742;2023-06-22T03:50:11;19.50;99.90
14349;DHT22;7258;50.376;8.742;2023-06-22T03:52:15;19.50;99.90
14349;DHT22;7258;50.376;8.742;2023-06-22T03:54:18;19.60;99.90
14349;DHT22;7258;50.376;8.742;2023-06-22T03:56:21;19.60;99.90
14349;DHT22;7258;50.376;8.742;2023-06-22T03:58:24;19.60;99.90
14349;DHT22;7258;50.376;8.742;2023-06-22T04:00:28;19.70;99.90
14349;DHT22;7258;50.376;8.742;2023-06-22T04:02:31;19.70;99.90
14349;DHT22;7258;50.376;8.742;2023-06-22T04:04:34;19.70;99.90
14349;DHT22;7258;50.376;8.742;2023-06-22T04:06:37;19.70;99.90
14349;DHT22;7258;50.376;8.742;2023-06-22T04:08:40;19.70;99.90
14349;DHT22;7258;50.376;8.742;2023-06-22T04:10:43;19.80;99.90
14349;DHT22;7258;50.376;8.742;2023-06-22T04:12:49;19.80;99.90
14349;DHT22;7258;50.376;8.742;2023-06-22T04:14:52;19.90;99.90
14349;DHT22;7258;50.376;8.742;2023-06-22T04:16:57;19.90;99.90
14349;DHT22;7258;50.376;8.742;2023-06-22T04:19:03;19.90;99.90
14349;DHT22;7258;50.376;8.742;2023-06-22T04:21:06;20.00;99.90
14349;DHT22;7258;50.376;8.742;2023-06-22T04:23:09;20.00;99.90
14349;DHT22;7258;50.376;8.742;2023-06-22T04:25:12;20.10;99.90
14349;DHT22;7258;50.376;8.742;2023-06-22T04:27:15;20.10;99.90
14349;DHT22;7258;50.376;8.742;2023-06-22T04:29:17;20.10;99.90
14349;DHT22;7258;50.376;8.742;2023-06-22T04:31:21;20.20;99.90
14349;DHT22;7258;50.376;8.742;2023-06-22T04:33:33;20.20;99.90
14349;DHT22;7258;50.376;8.742;2023-06-22T04:35:36;20.20;99.90
14349;DHT22;7258;50.376;8.742;2023-06-22T04:37:43;20.20;99.90
14349;DHT22;7258;50.376;8.742;2023-06-22T04:39:49;20.20;99.90
14349;DHT22;7258;50.376;8.742;2023-06-22T04:41:54;20.20;99.90
14349;DHT22;7258;50.376;8.742;2023-06-22T04:44:01;20.30;99.90
14349;DHT22;7258;50.376;8.742;2023-06-22T04:46:06;20.30;99.90
14349;DHT22;7258;50.376;8.742;2023-06-22T04:48:09;20.30;99.90
14349;DHT22;7258;50.376;8.742;2023-06-22T04:50:19;20.40;99.90
14349;DHT22;7258;50.376;8.742;2023-06-22T04:52:22;20.40;99.90
14349;DHT22;7258;50.376;8.742;2023-06-22T04:54:26;20.50;99.90
14349;DHT22;7258;50.376;8.742;2023-06-22T04:56:29;20.50;99.90
14349;DHT22;7258;50.376;8.742;2023-06-22T04:58:32;20.60;99.90
14349;DHT22;7258;50.376;8.742;2023-06-22T05:00:35;20.60;99.90
14349;DHT22;7258;50.376;8.742;2023-06-22T05:02:38;20.70;99.90
14349;DHT22;7258;50.376;8.742;2023-06-22T05:04:42;20.60;99.90
14349;DHT22;7258;50.376;8.742;2023-06-22T05:06:46;20.60;99.90
14349;DHT22;7258;50.376;8.742;2023-06-22T05:08:49;20.60;99.90
14349;DHT22;7258;50.376;8.742;2023-06-22T05:10:52;20.60;99.90
14349;DHT22;7258;50.376;8.742;2023-06-22T05:13:06;20.70;99.90
14349;DHT22;7258;50.376;8.742;2023-06-22T05:15:09;20.70;99.90
14349;DHT22;7258;50.376;8.742;2023-06-22T05:17:12;20.70;99.90
14349;DHT22;7258;50.376;8.742;2023-06-22T05:19:17;20.80;99.90
14349;DHT22;7258;50.376;8.742;2023-06-22T05:21:22;20.80;99.90
14349;DHT22;7258;50.376;8.742;2023-06-22T05:23:27;20.90;99.90
14349;DHT22;7258;50.376;8.742;2023-06-22T05:25:32;20.90;99.90
14349;DHT22;7258;50.376;8.742;2023-06-22T05:27:35;21.00;99.90
14349;DHT22;7258;50.376;8.742;2023-06-22T05:29:41;21.10;99.90
14349;DHT22;7258;50.376;8.742;2023-06-22T05:31:44;21.20;99.90
14349;DHT22;7258;50.376;8.742;2023-06-22T05:33:48;21.20;99.90
14349;DHT22;7258;50.376;8.742;2023-06-22T05:35:51;21.30;99.90
14349;DHT22;7258;50.376;8.742;2023-06-22T05:37:54;21.40;99.90
14349;DHT22;7258;50.376;8.742;2023-06-22T05:39:59;21.50;99.90
14349;DHT22;7258;50.376;8.742;2023-06-22T05:42:03;21.60;99.90
14349;DHT22;7258;50.376;8.742;2023-06-22T05:44:12;21.60;99.90
14349;DHT22;7258;50.376;8.742;2023-06-22T05:46:18;21.70;99.90
14349;DHT22;7258;50.376;8.742;2023-06-22T05:48:21;21.90;99.90
14349;DHT22;7258;50.376;8.742;2023-06-22T05:50:24;22.00;99.90
14349;DHT22;7258;50.376;8.742;2023-06-22T05:52:27;22.20;99.90
14349;DHT22;7258;50.376;8.742;2023-06-22T05:54:29;22.20;99.90
14349;DHT22;7258;50.376;8.742;2023-06-22T05:56:34;22.30;99.90
14349;DHT22;7258;50.376;8.742;2023-06-22T05:58:37;22.30;99.90
14349;DHT22;7258;50.376;8.742;2023-06-22T06:00:40;22.30;99.90
14349;DHT22;7258;50.376;8.742;2023-06-22T06:02:44;22.30;99.90
14349;DHT22;7258;50.376;8.742;2023-06-22T06:04:47;22.40;99.90
14349;DHT22;7258;50.376;8.742;2023-06-22T06:06:52;22.40;99.90
14349;DHT22;7258;50.376;8.742;2023-06-22T06:08:55;22.50;99.90
14349;DHT22;7258;50.376;8.742;2023-06-22T06:10:58;22.60;99.90
14349;DHT22;7258;50.376;8.742;2023-06-22T06:13:03;22.70;99.90
14349;DHT22;7258;50.376;8.742;2023-06-22T06:15:07;22.80;99.90
14349;DHT22;7258;50.376;8.742;2023-06-22T06:17:12;22.90;99.90
14349;DHT22;7258;50.376;8.742;2023-06-22T06:19:15;23.00;99.90
14349;DHT22;7258;50.376;8.742;2023-06-22T06:21:18;23.00;99.90
14349;DHT22;7258;50.376;8.742;2023-06-22T06:23:23;23.00;99.90
14349;DHT22;7258;50.376;8.742;2023-06-22T06:25:26;23.10;99.90
14349;DHT22;7258;50.376;8.742;2023-06-22T06:27:28;23.20;99.90
14349;DHT22;7258;50.376;8.742;2023-06-22T06:29:33;23.40;99.90
14349;DHT22;7258;50.376;8.742;2023-06-22T06:31:35;23.40;99.90
14349;DHT22;7258;50.376;8.742;2023-06-22T06:33:38;23.50;99.90
14349;DHT22;7258;50.376;8.742;2023-06-22T06:35:41;23.50;99.90
14349;DHT22;7258;50.376;8.742;2023-06-22T06:37:46;23.50;99.90
14349;DHT22;7258;50.376;8.742;2023-06-22T06:39:48;23.60;99.90
14349;DHT22;7258;50.376;8.742;2023-06-22T06:41:51;23.50;99.90
14349;DHT22;7258;50.376;8.742;2023-06-22T06:43:54;23.60;99.90
14349;DHT22;7258;50.376;8.742;2023-06-22T06:45:58;23.60;99.90
14349;DHT22;7258;50.376;8.742;2023-06-22T06:48:01;23.70;99.90
14349;DHT22;7258;50.376;8.742;2023-06-22T06:50:05;23.80;99.90
14349;DHT22;7258;50.376;8.742;2023-06-22T06:52:09;23.90;99.90
14349;DHT22;7258;50.376;8.742;2023-06-22T06:54:14;24.00;99.90
14349;DHT22;7258;50.376;8.742;2023-06-22T06:56:17;24.00;99.90
14349;DHT22;7258;50.376;8.742;2023-06-22T06:58:20;24.10;99.90
14349;DHT22;7258;50.376;8.742;2023-06-22T07:00:25;24.20;99.90
14349;DHT22;7258;50.376;8.742;2023-06-22T07:02:30;24.20;99.90
14349;DHT22;7258;50.376;8.742;2023-06-22T07:04:34;24.20;99.90
14349;DHT22;7258;50.376;8.742;2023-06-22T07:06:37;24.20;99.90
14349;DHT22;7258;50.376;8.742;2023-06-22T07:08:42;24.40;99.90
14349;DHT22;7258;50.376;8.742;2023-06-22T07:10:45;24.40;99.90
14349;DHT22;7258;50.376;8.742;2023-06-22T07:12:48;24.40;99.90
14349;DHT22;7258;50.376;8.742;2023-06-22T07:14:52;24.50;99.90
14349;DHT22;7258;50.376;8.742;2023-06-22T07:16:57;24.70;99.90
14349;DHT22;7258;50.376;8.742;2023-06-22T07:19:01;24.80;99.90
14349;DHT22;7258;50.376;8.742;2023-06-22T07:21:04;24.90;99.90
14349;DHT22;7258;50.376;8.742;2023-06-22T07:23:08;24.90;99.90
14349;DHT22;7258;50.376;8.742;2023-06-22T07:25:11;24.70;99.90
14349;DHT22;7258;50.376;8.742;2023-06-22T07:27:16;24.70;99.90
14349;DHT22;7258;50.376;8.742;2023-06-22T07:29:21;24.90;99.90
14349;DHT22;7258;50.376;8.742;2023-06-22T07:31:24;24.90;99.90
14349;DHT22;7258;50.376;8.742;2023-06-22T07:33:27;24.70;99.90
14349;DHT22;7258;50.376;8.742;2023-06-22T07:35:32;24.70;99.90
14349;DHT22;7258;50.376;8.742;2023-06-22T07:37:35;24.80;99.90
14349;DHT22;7258;50.376;8.742;2023-06-22T07:39:37;24.90;99.90
14349;DHT22;7258;50.376;8.742;2023-06-22T07:41:40;25.10;99.90
14349;DHT22;7258;50.376;8.742;2023-06-22T07:43:43;25.30;99.90
14349;DHT22;7258;50.376;8.742;2023-06-22T07:45:48;25.40;99.90
14349;DHT22;7258;50.376;8.742;2023-06-22T07:47:53;25.40;99.90
14349;DHT22;7258;50.376;8.742;2023-06-22T07:49:59;25.50;99.90
14349;DHT22;7258;50.376;8.742;2023-06-22T07:52:05;25.80;99.90
14349;DHT22;7258;50.376;8.742;2023-06-22T07:54:09;25.90;99.90
14349;DHT22;7258;50.376;8.742;2023-06-22T07:56:12;26.00;99.90
14349;DHT22;7258;50.376;8.742;2023-06-22T07:58:15;26.00;99.90
14349;DHT22;7258;50.376;8.742;2023-06-22T08:00:20;25.80;99.90
14349;DHT22;7258;50.376;8.742;2023-06-22T08:02:23;25.60;99.90
14349;DHT22;7258;50.376;8.742;2023-06-22T08:04:27;25.70;99.90
14349;DHT22;7258;50.376;8.742;2023-06-22T08:06:30;25.90;99.90
14349;DHT22;7258;50.376;8.742;2023-06-22T08:08:35;26.00;99.90
14349;DHT22;7258;50.376;8.742;2023-06-22T08:10:38;26.00;99.90
14349;DHT22;7258;50.376;8.742;2023-06-22T08:12:42;26.10;99.90
14349;DHT22;7258;50.376;8.742;2023-06-22T08:14:45;26.20;99.90
14349;DHT22;7258;50.376;8.742;2023-06-22T08:16:48;26.40;99.90
14349;DHT22;7258;50.376;8.742;2023-06-22T08:18:51;26.70;99.90
14349;DHT22;7258;50.376;8.742;2023-06-22T08:20:54;27.00;99.90
14349;DHT22;7258;50.376;8.742;2023-06-22T08:22:57;27.20;99.90
14349;DHT22;7258;50.376;8.742;2023-06-22T08:25:09;27.30;99.90
14349;DHT22;7258;50.376;8.742;2023-06-22T08:27:12;27.40;99.90
14349;DHT22;7258;50.376;8.742;2023-06-22T08:29:15;27.40;99.90
14349;DHT22;7258;50.376;8.742;2023-06-22T08:31:17;27.40;99.90
14349;DHT22;7258;50.376;8.742;2023-06-22T08:33:20;27.40;99.90
14349;DHT22;7258;50.376;8.742;2023-06-22T08:35:29;27.60;99.90
14349;DHT22;7258;50.376;8.742;2023-06-22T08:37:32;27.80;99.90
14349;DHT22;7258;50.376;8.742;2023-06-22T08:39:38;28.00;99.90
14349;DHT22;7258;50.376;8.742;2023-06-22T08:41:42;27.90;99.90
14349;DHT22;7258;50.376;8.742;2023-06-22T08:43:45;27.90;99.90
14349;DHT22;7258;50.376;8.742;2023-06-22T08:45:48;28.10;99.90
14349;DHT22;7258;50.376;8.742;2023-06-22T08:47:50;28.40;99.90
14349;DHT22;7258;50.376;8.742;2023-06-22T08:49:54;28.60;99.90
14349;DHT22;7258;50.376;8.742;2023-06-22T08:51:57;28.70;99.90
14349;DHT22;7258;50.376;8.742;2023-06-22T08:54:03;28.90;99.90
14349;DHT22;7258;50.376;8.742;2023-06-22T08:56:06;29.00;99.90
14349;DHT22;7258;50.376;8.742;2023-06-22T08:58:10;29.20;99.90
14349;DHT22;7258;50.376;8.742;2023-06-22T09:00:14;29.40;99.90
14349;DHT22;7258;50.376;8.742;2023-06-22T09:02:21;29.60;99.90
14349;DHT22;7258;50.376;8.742;2023-06-22T09:04:24;29.70;99.70
14349;DHT22;7258;50.376;8.742;2023-06-22T09:06:28;29.90;99.20
14349;DHT22;7258;50.376;8.742;2023-06-22T09:08:32;30.00;98.70
14349;DHT22;7258;50.376;8.742;2023-06-22T09:10:35;30.20;98.30
14349;DHT22;7258;50.376;8.742;2023-06-22T09:12:39;30.30;97.70
14349;DHT22;7258;50.376;8.742;2023-06-22T09:14:43;30.50;97.90
14349;DHT22;7258;50.376;8.742;2023-06-22T09:16:48;30.60;97.70
14349;DHT22;7258;50.376;8.742;2023-06-22T09:18:53;30.80;97.90
14349;DHT22;7258;50.376;8.742;2023-06-22T09:20:57;30.90;97.20
14349;DHT22;7258;50.376;8.742;2023-06-22T09:23:00;30.90;97.10
14349;DHT22;7258;50.376;8.742;2023-06-22T09:25:03;30.90;96.90
14349;DHT22;7258;50.376;8.742;2023-06-22T09:27:08;30.90;97.10
14349;DHT22;7258;50.376;8.742;2023-06-22T09:29:11;30.90;96.90
14349;DHT22;7258;50.376;8.742;2023-06-22T09:31:16;31.00;97.00
14349;DHT22;7258;50.376;8.742;2023-06-22T09:33:19;31.20;97.10
14349;DHT22;7258;50.376;8.742;2023-06-22T09:35:21;31.50;96.60
14349;DHT22;7258;50.376;8.742;2023-06-22T09:37:24;31.50;95.90
14349;DHT22;7258;50.376;8.742;2023-06-22T09:39:27;31.50;96.10
14349;DHT22;7258;50.376;8.742;2023-06-22T09:41:30;31.70;96.00
14349;DHT22;7258;50.376;8.742;2023-06-22T09:43:33;31.70;95.70
14349;DHT22;7258;50.376;8.742;2023-06-22T09:45:37;31.50;95.20
14349;DHT22;7258;50.376;8.742;2023-06-22T09:47:42;31.50;95.50
14349;DHT22;7258;50.376;8.742;2023-06-22T09:49:45;31.30;96.00
14349;DHT22;7258;50.376;8.742;2023-06-22T09:51:49;31.10;96.00
14349;DHT22;7258;50.376;8.742;2023-06-22T09:53:52;31.20;95.90
14349;DHT22;7258;50.376;8.742;2023-06-22T09:55:56;31.40;96.00
14349;DHT22;7258;50.376;8.742;2023-06-22T09:57:59;31.60;95.50
14349;DHT22;7258;50.376;8.742;2023-06-22T10:00:03;31.70;94.70
14349;DHT22;7258;50.376;8.742;2023-06-22T10:02:10;31.70;94.20
14349;DHT22;7258;50.376;8.742;2023-06-22T10:04:14;31.50;94.30
14349;DHT22;7258;50.376;8.742;2023-06-22T10:06:18;31.40;94.50
14349;DHT22;7258;50.376;8.742;2023-06-22T10:08:21;31.50;94.50
14349;DHT22;7258;50.376;8.742;2023-06-22T10:10:24;31.60;94.10
14349;DHT22;7258;50.376;8.742;2023-06-22T10:12:27;31.80;94.10
14349;DHT22;7258;50.376;8.742;2023-06-22T10:14:30;31.90;93.90
14349;DHT22;7258;50.376;8.742;2023-06-22T10:16:36;32.10;93.60
14349;DHT22;7258;50.376;8.742;2023-06-22T10:18:39;32.20;93.10
14349;DHT22;7258;50.376;8.742;2023-06-22T10:20:43;32.30;93.00
14349;DHT22;7258;50.376;8.742;2023-06-22T10:22:46;32.40;92.80
14349;DHT22;7258;50.376;8.742;2023-06-22T10:24:49;32.50;92.70
14349;DHT22;7258;50.376;8.742;2023-06-22T10:26:52;32.50;92.50
14349;DHT22;7258;50.376;8.742;2023-06-22T10:28:55;32.30;92.60
14349;DHT22;7258;50.376;8.742;2023-06-22T10:31:16;32.20;93.00
14349;DHT22;7258;50.376;8.742;2023-06-22T10:33:20;32.10;93.30
14349;DHT22;7258;50.376;8.742;2023-06-22T10:35:23;32.00;92.90
14349;DHT22;7258;50.376;8.742;2023-06-22T10:37:27;32.00;93.00
14349;DHT22;7258;50.376;8.742;2023-06-22T10:39:30;32.00;92.90
14349;DHT22;7258;50.376;8.742;2023-06-22T10:41:33;32.00;92.80
14349;DHT22;7258;50.376;8.742;2023-06-22T10:43:36;32.10;93.00
14349;DHT22;7258;50.376;8.742;2023-06-22T10:45:39;32.20;92.80
14349;DHT22;7258;50.376;8.742;2023-06-22T10:47:42;32.30;92.60
14349;DHT22;7258;50.376;8.742;2023-06-22T10:49:46;32.40;92.60
14349;DHT22;7258;50.376;8.742;2023-06-22T10:51:49;32.50;92.60
14349;DHT22;7258;50.376;8.742;2023-06-22T10:53:53;32.60;92.40
14349;DHT22;7258;50.376;8.742;2023-06-22T10:55:56;32.70;92.00
14349;DHT22;7258;50.376;8.742;2023-06-22T10:57:59;32.80;91.60
14349;DHT22;7258;50.376;8.742;2023-06-22T11:00:03;33.00;91.50
14349;DHT22;7258;50.376;8.742;2023-06-22T11:02:08;33.20;91.20
14349;DHT22;7258;50.376;8.742;2023-06-22T11:04:10;33.30;91.10
14349;DHT22;7258;50.376;8.742;2023-06-22T11:06:14;33.40;90.30
14349;DHT22;7258;50.376;8.742;2023-06-22T11:08:17;33.50;89.80
14349;DHT22;7258;50.376;8.742;2023-06-22T11:10:21;33.60;89.20
14349;DHT22;7258;50.376;8.742;2023-06-22T11:12:24;33.60;88.50
14349;DHT22;7258;50.376;8.742;2023-06-22T11:14:27;33.60;88.60
14349;DHT22;7258;50.376;8.742;2023-06-22T11:16:30;33.40;89.30
14349;DHT22;7258;50.376;8.742;2023-06-22T11:18:33;33.40;88.90
14349;DHT22;7258;50.376;8.742;2023-06-22T11:20:36;33.50;88.70
14349;DHT22;7258;50.376;8.742;2023-06-22T11:22:42;33.80;87.30
14349;DHT22;7258;50.376;8.742;2023-06-22T11:24:45;34.00;86.40
14349;DHT22;7258;50.376;8.742;2023-06-22T11:26:56;34.20;86.00
14349;DHT22;7258;50.376;8.742;2023-06-22T11:29:01;34.40;85.60
14349;DHT22;7258;50.376;8.742;2023-06-22T11:31:06;34.50;85.20
14349;DHT22;7258;50.376;8.742;2023-06-22T11:33:26;34.30;82.10
14349;DHT22;7258;50.376;8.742;2023-06-22T11:35:30;34.10;83.90
14349;DHT22;7258;50.376;8.742;2023-06-22T11:37:39;34.00;84.20
14349;DHT22;7258;50.376;8.742;2023-06-22T11:39:47;34.00;83.20
14349;DHT22;7258;50.376;8.742;2023-06-22T11:42:09;34.00;84.50
14349;DHT22;7258;50.376;8.742;2023-06-22T11:44:14;33.90;83.20
14349;DHT22;7258;50.376;8.742;2023-06-22T11:46:17;34.00;83.50
14349;DHT22;7258;50.376;8.742;2023-06-22T11:48:21;34.20;83.80
14349;DHT22;7258;50.376;8.742;2023-06-22T11:50:25;34.30;82.50
14349;DHT22;7258;50.376;8.742;2023-06-22T11:52:30;34.30;82.30
14349;DHT22;7258;50.376;8.742;2023-06-22T11:54:43;34.20;82.40
14349;DHT22;7258;50.376;8.742;2023-06-22T11:57:05;34.30;82.90
14349;DHT22;7258;50.376;8.742;2023-06-22T11:59:09;34.30;82.30
14349;DHT22;7258;50.376;8.742;2023-06-22T12:01:16;34.30;82.40
14349;DHT22;7258;50.376;8.742;2023-06-22T12:03:20;34.20;83.00
14349;DHT22;7258;50.376;8.742;2023-06-22T12:05:24;34.00;83.40
14349;DHT22;7258;50.376;8.742;2023-06-22T12:07:29;33.90;83.80
14349;DHT22;7258;50.376;8.742;2023-06-22T12:09:33;33.80;83.90
14349;DHT22;7258;50.376;8.742;2023-06-22T12:11:46;33.70;84.60
14349;DHT22;7258;50.376;8.742;2023-06-22T12:13:52;33.60;84.90
14349;DHT22;7258;50.376;8.742;2023-06-22T12:16:06;33.60;85.20
14349;DHT22;7258;50.376;8.742;2023-06-22T12:18:11;33.80;85.20
14349;DHT22;7258;50.376;8.742;2023-06-22T12:20:17;34.00;85.20
14349;DHT22;7258;50.376;8.742;2023-06-22T12:22:22;34.20;84.40
14349;DHT22;7258;50.376;8.742;2023-06-22T12:24:28;34.30;84.40
14349;DHT22;7258;50.376;8.742;2023-06-22T12:26:34;34.50;83.90
14349;DHT22;7258;50.376;8.742;2023-06-22T12:28:40;34.70;83.50
14349;DHT22;7258;50.376;8.742;2023-06-22T12:30:50;34.90;83.10
14349;DHT22;7258;50.376;8.742;2023-06-22T12:32:59;35.00;83.10
14349;DHT22;7258;50.376;8.742;2023-06-22T12:35:02;35.00;83.40
14349;DHT22;7258;50.376;8.742;2023-06-22T12:37:12;35.10;83.50
14349;DHT22;7258;50.376;8.742;2023-06-22T12:39:21;35.10;82.40
14349;DHT22;7258;50.376;8.742;2023-06-22T12:41:25;35.10;83.20
14349;DHT22;7258;50.376;8.742;2023-06-22T12:43:28;35.10;82.80
14349;DHT22;7258;50.376;8.742;2023-06-22T12:45:33;35.00;83.10
14349;DHT22;7258;50.376;8.742;2023-06-22T12:47:36;34.90;83.20
14349;DHT22;7258;50.376;8.742;2023-06-22T12:49:42;34.90;83.00
14349;DHT22;7258;50.376;8.742;2023-06-22T12:51:45;34.90;83.30
14349;DHT22;7258;50.376;8.742;2023-06-22T12:53:49;34.90;83.30
14349;DHT22;7258;50.376;8.742;2023-06-22T12:55:52;35.00;83.20
14349;DHT22;7258;50.376;8.742;2023-06-22T12:57:57;35.10;82.40
14349;DHT22;7258;50.376;8.742;2023-06-22T13:00:01;35.30;82.60
14349;DHT22;7258;50.376;8.742;2023-06-22T13:02:09;35.50;82.20
14349;DHT22;7258;50.376;8.742;2023-06-22T13:04:17;35.50;82.00
14349;DHT22;7258;50.376;8.742;2023-06-22T13:06:22;35.50;82.30
14349;DHT22;7258;50.376;8.742;2023-06-22T13:08:26;35.50;82.50
14349;DHT22;7258;50.376;8.742;2023-06-22T13:10:51;35.30;82.30
14349;DHT22;7258;50.376;8.742;2023-06-22T13:12:56;35.40;82.10
14349;DHT22;7258;50.376;8.742;2023-06-22T13:15:03;35.50;81.00
14349;DHT22;7258;50.376;8.742;2023-06-22T13:17:09;35.50;80.30
14349;DHT22;7258;50.376;8.742;2023-06-22T13:19:13;35.50;80.60
14349;DHT22;7258;50.376;8.742;2023-06-22T13:21:16;35.50;81.50
14349;DHT22;7258;50.376;8.742;2023-06-22T13:23:37;35.50;80.90
14349;DHT22;7258;50.376;8.742;2023-06-22T13:25:57;35.60;80.70
14349;DHT22;7258;50.376;8.742;2023-06-22T13:28:13;35.70;81.20
14349;DHT22;7258;50.376;8.742;2023-06-22T13:30:40;35.80;80.90
14349;DHT22;7258;50.376;8.742;2023-06-22T13:32:56;35.70;81.00
14349;DHT22;7258;50.376;8.742;2023-06-22T13:35:22;35.50;81.90
14349;DHT22;7258;50.376;8.742;2023-06-22T13:37:46;35.60;81.90
14349;DHT22;7258;50.376;8.742;2023-06-22T13:40:00;35.60;82.30
14349;DHT22;7258;50.376;8.742;2023-06-22T13:42:10;35.60;83.00
14349;DHT22;7258;50.376;8.742;2023-06-22T13:44:19;35.60;82.80
14349;DHT22;7258;50.376;8.742;2023-06-22T13:46:36;35.40;83.00
14349;DHT22;7258;50.376;8.742;2023-06-22T13:48:40;35.40;83.20
14349;DHT22;7258;50.376;8.742;2023-06-22T13:50:43;35.40;83.60
14349;DHT22;7258;50.376;8.742;2023-06-22T13:53:14;35.30;82.50
14349;DHT22;7258;50.376;8.742;2023-06-22T13:55:33;35.50;82.40
14349;DHT22;7258;50.376;8.742;2023-06-22T13:57:46;35.40;82.30
14349;DHT22;7258;50.376;8.742;2023-06-22T13:59:56;35.30;82.70
14349;DHT22;7258;50.376;8.742;2023-06-22T14:01:59;35.50;82.50
14349;DHT22;7258;50.376;8.742;2023-06-22T14:04:31;35.70;82.40
14349;DHT22;7258;50.376;8.742;2023-06-22T14:06:38;35.90;81.20